»·PEaware :: AAL2901 KPHX-KSEA

AAL2901 :: KPHX-KSEA

FLIGHT INFORMATION

Flight Status: Arrived
Operator:
American Airlines
More flights by this operator :: More flights under this callsign
Pilot: Hector M C. (32421)
Aircraft: AIRBUS A321
(A321)
More flights by this aircraft type
Origin: KPHX Phoenix Sky Harbor Intl
United States
Destination: KSEA Seattle-Tacoma Intl
United States
More flights between these airports :: More routes between these airports
Route: QUAKY1 GCN WINEN Q35 NEERO IMB CHINS4
File this flight plan on PilotEdge
Remarks: RMK / SIMBRIEF
Altitude:
(Current/Filed)
34,000ft
Speed:
(Current/Filed)
459kts
Departed: 12-Nov-20 01:29 PM
Arrived: 12-Nov-20 03:58 PM
Distance/Time
Traveled:
961nm/2:28
Distance/Time
To Go:
Arrived

Flight Plot

Page will automatically refresh every two minutes.

Flight plan parsing failed; only flown route is shown


Map Options




Map Legend


Flown Route
Filed Route
Departure Airport
Arrival Airport
Navaid (VOR, NDB)
Fix

Horizontal Profiles

Position Reports

Time Latitude Longitude Heading Altitude Ground
Speed
12-Nov-20 12:25 33.438003 -112.002494 115 1143ft 0kts
12-Nov-20 12:26 33.438003 -112.002494 115 1143ft 0kts
12-Nov-20 12:27 33.438003 -112.002494 115 1143ft 0kts
12-Nov-20 12:28 33.438003 -112.002494 115 1143ft 0kts
12-Nov-20 12:29 33.438003 -112.002494 115 1143ft 0kts
12-Nov-20 12:30 33.438003 -112.002494 115 1143ft 0kts
12-Nov-20 12:31 33.438003 -112.002494 115 1143ft 0kts
12-Nov-20 12:32 33.438003 -112.002494 115 1143ft 0kts
12-Nov-20 12:33 33.438003 -112.002494 115 1143ft 0kts
12-Nov-20 12:34 33.438003 -112.002494 115 1143ft 0kts
12-Nov-20 12:35 33.438003 -112.002494 115 1143ft 0kts
12-Nov-20 12:36 33.438003 -112.002494 115 1143ft 0kts
12-Nov-20 12:37 33.438003 -112.002494 115 1143ft 0kts
12-Nov-20 12:38 33.438003 -112.002494 115 1143ft 0kts
12-Nov-20 12:39 33.438003 -112.002494 115 1143ft 0kts
12-Nov-20 12:40 33.438003 -112.002494 115 1143ft 0kts
12-Nov-20 12:41 33.438003 -112.002494 115 1143ft 0kts
12-Nov-20 12:42 33.438003 -112.002494 115 1143ft 0kts
12-Nov-20 12:43 33.438003 -112.002494 115 1143ft 0kts
12-Nov-20 12:44 33.438003 -112.002494 115 1143ft 0kts
12-Nov-20 12:45 33.438003 -112.002494 115 1143ft 0kts
12-Nov-20 12:46 33.438003 -112.002494 115 1143ft 0kts
12-Nov-20 12:47 33.438003 -112.002494 115 1143ft 0kts
12-Nov-20 12:48 33.438003 -112.002494 115 1143ft 0kts
12-Nov-20 12:49 33.438003 -112.002494 115 1143ft 0kts
12-Nov-20 12:50 33.438003 -112.002494 115 1143ft 0kts
12-Nov-20 12:51 33.438003 -112.002494 115 1143ft 0kts
12-Nov-20 12:52 33.438003 -112.002494 115 1143ft 0kts
12-Nov-20 12:53 33.438003 -112.002494 115 1143ft 0kts
12-Nov-20 12:54 33.438003 -112.002494 115 1143ft 0kts
12-Nov-20 12:55 33.438003 -112.002494 115 1143ft 0kts
12-Nov-20 12:58 33.438003 -112.002494 115 1143ft 0kts
12-Nov-20 12:59 33.438003 -112.002494 115 1143ft 0kts
12-Nov-20 13:00 33.438003 -112.002494 115 1143ft 0kts
12-Nov-20 13:05 33.438003 -112.002494 115 1143ft 0kts
12-Nov-20 13:06 33.438003 -112.002494 115 1143ft 0kts
12-Nov-20 13:07 33.438003 -112.002494 115 1143ft 0kts
12-Nov-20 13:08 33.438003 -112.002494 115 1143ft 0kts
12-Nov-20 13:09 33.438003 -112.002494 115 1143ft 0kts
12-Nov-20 13:10 33.438003 -112.002494 115 1143ft 0kts
12-Nov-20 13:11 33.438003 -112.002494 115 1143ft 0kts
12-Nov-20 13:12 33.438003 -112.002494 115 1143ft 0kts
12-Nov-20 13:13 33.438003 -112.002494 115 1143ft 0kts
12-Nov-20 13:14 33.438003 -112.002494 115 1143ft 0kts
12-Nov-20 13:15 33.438018 -112.002531 115 1143ft 2kts
12-Nov-20 13:16 33.438438 -112.003007 172 1143ft 2kts
12-Nov-20 13:17 33.438970 -112.002747 241 1143ft 2kts
12-Nov-20 13:18 33.439026 -112.002432 270 1143ft 0kts
12-Nov-20 13:19 33.439026 -112.002432 270 1143ft 0kts
12-Nov-20 13:20 33.439026 -112.002432 270 1143ft 0kts
12-Nov-20 13:21 33.439018 -112.004517 267 1143ft 9kts
12-Nov-20 13:22 33.438994 -112.007560 270 1143ft 8kts
12-Nov-20 13:23 33.438985 -112.010745 269 1143ft 11kts
12-Nov-20 13:24 33.438959 -112.015198 270 1143ft 14kts
12-Nov-20 13:25 33.439000 -112.020460 270 1143ft 16kts
12-Nov-20 13:26 33.439003 -112.026136 270 1143ft 17kts
12-Nov-20 13:27 33.440813 -112.029377 66 1143ft 14kts
12-Nov-20 13:28 33.440810 -111.995980 89 1489ft 188kts
12-Nov-20 13:29 33.438049 -111.933106 93 4037ft 190kts
12-Nov-20 13:30 33.443931 -111.863623 44 5308ft 249kts
12-Nov-20 13:31 33.517337 -111.848391 4 7671ft 284kts
12-Nov-20 13:32 33.598094 -111.841153 2 10363ft 299kts
12-Nov-20 13:33 33.689545 -111.844415 347 11567ft 359kts
12-Nov-20 13:34 33.796584 -111.868902 346 12783ft 415kts
12-Nov-20 13:35 33.912652 -111.895010 345 15256ft 430kts
12-Nov-20 13:36 34.032484 -111.922069 344 17580ft 443kts
12-Nov-20 13:37 34.156998 -111.942824 348 19759ft 457kts
12-Nov-20 13:38 34.285221 -111.956635 347 21673ft 467kts
12-Nov-20 13:39 34.416697 -111.971211 346 23319ft 478kts
12-Nov-20 13:40 34.551540 -111.986105 345 24806ft 488kts
12-Nov-20 13:41 34.688711 -112.001314 345 26169ft 496kts
12-Nov-20 13:42 34.827662 -112.016807 344 27526ft 501kts
12-Nov-20 13:43 34.967036 -112.032474 343 29014ft 500kts
12-Nov-20 13:44 35.105656 -112.048213 343 30275ft 500kts
12-Nov-20 13:45 35.245160 -112.063896 342 31471ft 498kts
12-Nov-20 13:46 35.384408 -112.079718 342 32467ft 499kts
12-Nov-20 13:47 35.522438 -112.093267 342 33509ft 496kts
12-Nov-20 13:48 35.660281 -112.109513 341 34139ft 494kts
12-Nov-20 13:49 35.797382 -112.126121 341 34145ft 494kts
12-Nov-20 13:50 35.932862 -112.148892 332 34145ft 477kts
12-Nov-20 13:51 36.052767 -112.206878 317 34146ft 449kts
12-Nov-20 13:52 36.163066 -112.280910 317 34145ft 446kts
12-Nov-20 13:53 36.272921 -112.354650 317 34146ft 447kts
12-Nov-20 13:54 36.383705 -112.429277 318 34150ft 449kts
12-Nov-20 13:55 36.493925 -112.503784 318 34154ft 450kts
12-Nov-20 13:56 36.605130 -112.579186 318 34156ft 451kts
12-Nov-20 13:57 36.715666 -112.654384 318 34164ft 450kts
12-Nov-20 13:58 36.825559 -112.729789 318 34162ft 450kts
12-Nov-20 13:59 36.935960 -112.805486 319 34162ft 451kts
12-Nov-20 14:00 37.046152 -112.881190 319 34159ft 451kts
12-Nov-20 14:01 37.156580 -112.957079 319 34157ft 451kts
12-Nov-20 14:02 37.266805 -113.033060 320 34159ft 450kts
12-Nov-20 14:03 37.376776 -113.109359 320 34149ft 451kts
12-Nov-20 14:05 37.486866 -113.186028 320 34149ft 451kts
12-Nov-20 14:06 37.597225 -113.263143 321 34151ft 451kts
12-Nov-20 14:07 37.706798 -113.339967 321 34151ft 450kts
12-Nov-20 14:08 37.816793 -113.417360 321 34152ft 450kts
12-Nov-20 14:09 37.924901 -113.496517 317 34151ft 443kts
12-Nov-20 14:10 38.020185 -113.593287 311 34150ft 436kts
12-Nov-20 14:11 38.112598 -113.693719 311 34148ft 436kts
12-Nov-20 14:12 38.205345 -113.794259 311 34146ft 437kts
12-Nov-20 14:13 38.297788 -113.895043 311 34143ft 438kts
12-Nov-20 14:14 38.390640 -113.996639 311 34139ft 437kts
12-Nov-20 14:15 38.483078 -114.098213 311 34135ft 438kts
12-Nov-20 14:16 38.575838 -114.200455 312 34131ft 439kts
12-Nov-20 14:17 38.668463 -114.302923 312 34126ft 440kts
12-Nov-20 14:18 38.761212 -114.405885 312 34123ft 440kts
12-Nov-20 14:19 38.854281 -114.509567 313 34118ft 440kts
12-Nov-20 14:19 38.931697 -114.596101 313 34116ft 441kts
12-Nov-20 14:21 39.040358 -114.718285 312 34113ft 442kts
12-Nov-20 14:21 39.117757 -114.805550 313 34111ft 442kts
12-Nov-20 14:23 39.226678 -114.928076 313 34109ft 443kts
12-Nov-20 14:23 39.304257 -115.015998 313 34108ft 444kts
12-Nov-20 14:25 39.412796 -115.139552 313 34109ft 445kts
12-Nov-20 14:26 39.506116 -115.246207 313 34106ft 445kts
12-Nov-20 14:26 39.583715 -115.335206 313 34103ft 445kts
12-Nov-20 14:27 39.676422 -115.441891 314 34099ft 444kts
12-Nov-20 14:28 39.769149 -115.549001 314 34096ft 445kts
12-Nov-20 14:29 39.862008 -115.656657 313 34095ft 444kts
12-Nov-20 14:30 39.954142 -115.764310 313 34100ft 443kts
12-Nov-20 14:31 40.046538 -115.872361 314 34103ft 446kts
12-Nov-20 14:32 40.139331 -115.980908 314 34103ft 445kts
12-Nov-20 14:33 40.232233 -116.089846 314 34102ft 445kts
12-Nov-20 14:34 40.324675 -116.199024 314 34102ft 444kts
12-Nov-20 14:35 40.417170 -116.308745 314 34103ft 444kts
12-Nov-20 14:36 40.509061 -116.418173 314 34104ft 443kts
12-Nov-20 14:37 40.600709 -116.527737 314 34105ft 443kts
12-Nov-20 14:38 40.692195 -116.637553 314 34107ft 443kts
12-Nov-20 14:39 40.783358 -116.747765 313 34106ft 443kts
12-Nov-20 14:40 40.874712 -116.858373 313 34107ft 442kts
12-Nov-20 14:41 40.965851 -116.969050 313 34107ft 442kts
12-Nov-20 14:42 41.056540 -117.079598 313 34104ft 442kts
12-Nov-20 14:43 41.147173 -117.190154 313 34101ft 442kts
12-Nov-20 14:44 41.237781 -117.301146 313 34101ft 443kts
12-Nov-20 14:45 41.328127 -117.412549 313 34099ft 443kts
12-Nov-20 14:46 41.417969 -117.523807 313 34098ft 440kts
12-Nov-20 14:47 41.507511 -117.635156 313 34095ft 442kts
12-Nov-20 14:48 41.597340 -117.747634 312 34094ft 442kts
12-Nov-20 14:49 41.686755 -117.859746 312 34088ft 440kts
12-Nov-20 14:50 41.777211 -117.970622 316 34079ft 444kts
12-Nov-20 14:51 41.882028 -118.060429 329 34072ft 452kts
12-Nov-20 14:52 41.997384 -118.127289 332 34067ft 453kts
12-Nov-20 14:53 42.113719 -118.193513 332 34062ft 454kts
12-Nov-20 14:54 42.229814 -118.259740 332 34059ft 452kts
12-Nov-20 14:55 42.345182 -118.326122 332 34055ft 452kts
12-Nov-20 14:56 42.460876 -118.393003 332 34054ft 452kts
12-Nov-20 14:57 42.575966 -118.459766 332 34052ft 451kts
12-Nov-20 14:58 42.690264 -118.526227 332 34043ft 452kts
12-Nov-20 14:59 42.805690 -118.593766 332 34042ft 453kts
12-Nov-20 15:00 42.921123 -118.661651 331 34043ft 452kts
12-Nov-20 15:01 43.036426 -118.730110 331 34042ft 451kts
12-Nov-20 15:02 43.151674 -118.798299 331 34041ft 450kts
12-Nov-20 15:03 43.266599 -118.866473 331 34025ft 450kts
12-Nov-20 15:04 43.381489 -118.935066 330 34019ft 450kts
12-Nov-20 15:05 43.495956 -119.003753 330 34017ft 451kts
12-Nov-20 15:06 43.611392 -119.073286 330 34017ft 451kts
12-Nov-20 15:07 43.726175 -119.142717 330 34017ft 451kts
12-Nov-20 15:08 43.841255 -119.212627 330 34015ft 451kts
12-Nov-20 15:09 43.955946 -119.282601 331 34014ft 451kts
12-Nov-20 15:10 44.070611 -119.352833 330 34012ft 451kts
12-Nov-20 15:11 44.185252 -119.423097 330 34010ft 450kts
12-Nov-20 15:12 44.299297 -119.493463 330 34010ft 450kts
12-Nov-20 15:13 44.413179 -119.564144 330 34009ft 448kts
12-Nov-20 15:14 44.526786 -119.635011 330 34010ft 447kts
12-Nov-20 15:15 44.643220 -119.699263 338 34013ft 454kts
12-Nov-20 15:16 44.768753 -119.729945 348 34014ft 462kts
12-Nov-20 15:17 44.896386 -119.748268 348 34016ft 462kts
12-Nov-20 15:18 45.023877 -119.767088 348 34019ft 464kts
12-Nov-20 15:19 45.152207 -119.786115 348 34022ft 463kts
12-Nov-20 15:20 45.279796 -119.805095 348 34026ft 463kts
12-Nov-20 15:21 45.407761 -119.824291 348 34030ft 462kts
12-Nov-20 15:22 45.535396 -119.843545 348 34032ft 462kts
12-Nov-20 15:23 45.662711 -119.862833 348 34032ft 462kts
12-Nov-20 15:24 45.790155 -119.882230 348 34036ft 461kts
12-Nov-20 15:25 45.917603 -119.901720 348 34040ft 461kts
12-Nov-20 15:26 46.044763 -119.921234 348 34040ft 461kts
12-Nov-20 15:27 46.172428 -119.940833 348 34036ft 461kts
12-Nov-20 15:28 46.292486 -119.990408 324 34029ft 443kts
12-Nov-20 15:29 46.380453 -120.108102 304 34027ft 429kts
12-Nov-20 15:30 46.455929 -120.241847 304 34022ft 429kts
12-Nov-20 15:31 46.531699 -120.375817 304 34015ft 428kts
12-Nov-20 15:32 46.603286 -120.512793 300 34009ft 425kts
12-Nov-20 15:33 46.670515 -120.653903 299 33942ft 426kts
12-Nov-20 15:34 46.738728 -120.797973 299 30839ft 441kts
12-Nov-20 15:35 46.808772 -120.946205 300 27436ft 445kts
12-Nov-20 15:36 46.878239 -121.094201 300 24276ft 439kts
12-Nov-20 15:37 46.947039 -121.241371 301 21018ft 431kts
12-Nov-20 15:38 47.011275 -121.379251 300 19667ft 385kts
12-Nov-20 15:39 47.067455 -121.500636 300 18906ft 338kts
12-Nov-20 15:40 47.117120 -121.608173 300 18057ft 302kts
12-Nov-20 15:41 47.163629 -121.709383 299 16458ft 296kts
12-Nov-20 15:42 47.210815 -121.812895 299 16167ft 313kts
12-Nov-20 15:43 47.259214 -121.918839 299 13916ft 305kts
12-Nov-20 15:44 47.304511 -122.018525 298 12510ft 279kts
12-Nov-20 15:45 47.345990 -122.110333 298 12099ft 264kts
12-Nov-20 15:46 47.405000 -122.175085 357 12106ft 307kts
12-Nov-20 15:47 47.490011 -122.171960 358 10565ft 305kts
12-Nov-20 15:48 47.573784 -122.171154 358 8738ft 298kts
12-Nov-20 15:49 47.655599 -122.172821 358 6725ft 289kts
12-Nov-20 15:50 47.724241 -122.191715 303 5766ft 232kts
12-Nov-20 15:51 47.704747 -122.257904 205 4620ft 201kts
12-Nov-20 15:52 47.655100 -122.295355 196 3505ft 200kts
12-Nov-20 15:53 47.600648 -122.306438 177 3181ft 200kts
12-Nov-20 15:54 47.548459 -122.306997 179 2099ft 173kts
12-Nov-20 15:55 47.504425 -122.307291 180 1235ft 135kts
12-Nov-20 15:56 47.466871 -122.307689 179 557ft 135kts
12-Nov-20 15:57 47.444189 -122.307919 180 442ft 25kts
12-Nov-20 15:58 47.444717 -122.306327 0 442ft 15kts
12-Nov-20 15:59 47.448060 -122.305374 359 442ft 9kts
12-Nov-20 16:00 47.448924 -122.304480 92 442ft 0kts

Navigation Log

Ident Type
Flight plan parsing failed, navigation log unavailable